sensor_id;sensor_type;location;lat;lon;timestamp;pressure;altitude;pressure_sealevel;temperature;humidity
9335;BME280;4706;41.844;26.082;2023-05-01T00:00:59;100663.63;;;16.59;74.48
9335;BME280;4706;41.844;26.082;2023-05-01T00:03:25;100661.97;;;16.58;74.75
9335;BME280;4706;41.844;26.082;2023-05-01T00:05:58;100649.84;;;16.41;75.20
9335;BME280;4706;41.844;26.082;2023-05-01T00:08:24;100662.41;;;16.47;75.31
9335;BME280;4706;41.844;26.082;2023-05-01T00:10:49;100664.69;;;16.45;75.50
9335;BME280;4706;41.844;26.082;2023-05-01T00:13:15;100657.16;;;16.46;75.55
9335;BME280;4706;41.844;26.082;2023-05-01T00:15:42;100655.06;;;16.43;75.10
9335;BME280;4706;41.844;26.082;2023-05-01T00:18:07;100670.97;;;16.55;74.53
9335;BME280;4706;41.844;26.082;2023-05-01T00:20:33;100662.50;;;16.51;74.59
9335;BME280;4706;41.844;26.082;2023-05-01T00:22:58;100658.78;;;16.47;74.19
9335;BME280;4706;41.844;26.082;2023-05-01T00:25:24;100672.41;;;16.61;73.55
9335;BME280;4706;41.844;26.082;2023-05-01T00:27:49;100667.88;;;16.56;73.36
9335;BME280;4706;41.844;26.082;2023-05-01T00:30:15;100675.44;;;16.47;74.23
9335;BME280;4706;41.844;26.082;2023-05-01T00:32:40;100667.66;;;16.40;74.40
9335;BME280;4706;41.844;26.082;2023-05-01T00:35:06;100662.66;;;16.34;74.72
9335;BME280;4706;41.844;26.082;2023-05-01T00:37:32;100673.53;;;16.39;74.92
9335;BME280;4706;41.844;26.082;2023-05-01T00:39:57;100668.19;;;16.34;75.35
9335;BME280;4706;41.844;26.082;2023-05-01T00:42:23;100674.00;;;16.20;75.79
9335;BME280;4706;41.844;26.082;2023-05-01T00:44:48;100680.31;;;16.29;74.97
9335;BME280;4706;41.844;26.082;2023-05-01T00:47:14;100685.63;;;16.13;75.69
9335;BME280;4706;41.844;26.082;2023-05-01T00:49:43;100685.91;;;15.91;76.13
9335;BME280;4706;41.844;26.082;2023-05-01T00:52:09;100692.06;;;15.49;78.49
9335;BME280;4706;41.844;26.082;2023-05-01T00:54:36;100695.06;;;15.36;78.41
9335;BME280;4706;41.844;26.082;2023-05-01T00:57:01;100690.22;;;15.24;78.80
9335;BME280;4706;41.844;26.082;2023-05-01T00:59:27;100693.63;;;15.21;79.09
9335;BME280;4706;41.844;26.082;2023-05-01T01:01:53;100697.72;;;15.23;78.55
9335;BME280;4706;41.844;26.082;2023-05-01T01:04:20;100677.19;;;15.07;78.36
9335;BME280;4706;41.844;26.082;2023-05-01T01:07:10;100704.84;;;15.33;78.14
9335;BME280;4706;41.844;26.082;2023-05-01T01:31:09;100746.38;;;15.42;77.84
9335;BME280;4706;41.844;26.082;2023-05-01T01:33:53;100754.25;;;15.22;78.77
9335;BME280;4706;41.844;26.082;2023-05-01T01:36:50;100755.75;;;15.20;78.67
9335;BME280;4706;41.844;26.082;2023-05-01T01:42:18;100762.41;;;15.10;79.48
9335;BME280;4706;41.844;26.082;2023-05-01T01:44:51;100756.25;;;15.04;79.77
9335;BME280;4706;41.844;26.082;2023-05-01T01:47:19;100756.38;;;15.08;79.57
9335;BME280;4706;41.844;26.082;2023-05-01T01:49:48;100753.78;;;15.20;79.14
9335;BME280;4706;41.844;26.082;2023-05-01T01:52:17;100751.50;;;15.31;79.01
9335;BME280;4706;41.844;26.082;2023-05-01T01:54:50;100753.09;;;15.41;78.28
9335;BME280;4706;41.844;26.082;2023-05-01T01:57:18;100756.97;;;15.57;77.12
9335;BME280;4706;41.844;26.082;2023-05-01T01:59:45;100761.25;;;15.46;77.48
9335;BME280;4706;41.844;26.082;2023-05-01T02:02:13;100760.31;;;15.16;78.48
9335;BME280;4706;41.844;26.082;2023-05-01T02:04:41;100759.97;;;15.09;79.07
9335;BME280;4706;41.844;26.082;2023-05-01T02:07:07;100771.53;;;15.11;78.11
9335;BME280;4706;41.844;26.082;2023-05-01T02:09:34;100768.13;;;14.88;77.65
9335;BME280;4706;41.844;26.082;2023-05-01T02:12:01;100768.25;;;14.65;79.05
9335;BME280;4706;41.844;26.082;2023-05-01T02:14:30;100777.72;;;14.73;78.10
9335;BME280;4706;41.844;26.082;2023-05-01T02:16:56;100776.84;;;14.55;79.21
9335;BME280;4706;41.844;26.082;2023-05-01T02:19:23;100784.34;;;14.54;78.64
9335;BME280;4706;41.844;26.082;2023-05-01T02:21:51;100774.38;;;14.45;79.33
9335;BME280;4706;41.844;26.082;2023-05-01T02:24:18;100772.91;;;14.47;79.14
9335;BME280;4706;41.844;26.082;2023-05-01T02:26:56;100780.91;;;14.49;79.19
9335;BME280;4706;41.844;26.082;2023-05-01T02:29:24;100769.59;;;14.28;80.54
9335;BME280;4706;41.844;26.082;2023-05-01T02:31:51;100775.28;;;14.23;80.70
9335;BME280;4706;41.844;26.082;2023-05-01T02:34:16;100777.59;;;14.29;80.23
9335;BME280;4706;41.844;26.082;2023-05-01T02:36:42;100780.84;;;14.31;79.94
9335;BME280;4706;41.844;26.082;2023-05-01T02:39:07;100780.72;;;14.45;80.25
9335;BME280;4706;41.844;26.082;2023-05-01T02:41:34;100783.78;;;14.44;81.87
9335;BME280;4706;41.844;26.082;2023-05-01T02:44:02;100785.91;;;14.29;83.01
9335;BME280;4706;41.844;26.082;2023-05-01T02:46:30;100784.03;;;14.16;83.69
9335;BME280;4706;41.844;26.082;2023-05-01T02:49:00;100786.06;;;14.33;83.73
9335;BME280;4706;41.844;26.082;2023-05-01T02:51:28;100795.66;;;14.36;83.67
9335;BME280;4706;41.844;26.082;2023-05-01T02:53:54;100798.63;;;14.48;83.16
9335;BME280;4706;41.844;26.082;2023-05-01T02:56:20;100800.97;;;14.54;82.86
9335;BME280;4706;41.844;26.082;2023-05-01T02:58:49;100811.75;;;14.73;81.68
9335;BME280;4706;41.844;26.082;2023-05-01T03:01:14;100809.66;;;14.79;81.57
9335;BME280;4706;41.844;26.082;2023-05-01T03:03:40;100809.63;;;14.70;81.89
9335;BME280;4706;41.844;26.082;2023-05-01T03:06:06;100801.47;;;14.74;81.35
9335;BME280;4706;41.844;26.082;2023-05-01T03:08:31;100810.47;;;14.79;81.30
9335;BME280;4706;41.844;26.082;2023-05-01T03:10:57;100801.19;;;14.84;80.14
9335;BME280;4706;41.844;26.082;2023-05-01T03:13:22;100811.13;;;15.02;79.21
9335;BME280;4706;41.844;26.082;2023-05-01T03:15:47;100821.06;;;15.03;79.27
9335;BME280;4706;41.844;26.082;2023-05-01T03:18:13;100822.22;;;15.02;79.24
9335;BME280;4706;41.844;26.082;2023-05-01T03:20:38;100816.34;;;14.95;79.42
9335;BME280;4706;41.844;26.082;2023-05-01T03:23:04;100812.25;;;14.93;79.29
9335;BME280;4706;41.844;26.082;2023-05-01T03:25:31;100801.34;;;14.79;79.86
9335;BME280;4706;41.844;26.082;2023-05-01T03:27:56;100811.94;;;14.86;79.64
9335;BME280;4706;41.844;26.082;2023-05-01T03:30:22;100818.78;;;14.97;79.89
9335;BME280;4706;41.844;26.082;2023-05-01T03:32:47;100820.25;;;15.03;79.53
9335;BME280;4706;41.844;26.082;2023-05-01T03:35:13;100813.91;;;15.02;79.29
9335;BME280;4706;41.844;26.082;2023-05-01T03:37:38;100825.78;;;15.12;78.44
9335;BME280;4706;41.844;26.082;2023-05-01T03:40:04;100829.06;;;15.14;77.74
9335;BME280;4706;41.844;26.082;2023-05-01T03:42:30;100837.38;;;15.14;77.88
9335;BME280;4706;41.844;26.082;2023-05-01T03:44:55;100838.84;;;15.11;77.94
9335;BME280;4706;41.844;26.082;2023-05-01T03:47:22;100829.38;;;15.03;78.40
9335;BME280;4706;41.844;26.082;2023-05-01T03:49:48;100841.31;;;15.13;78.12
9335;BME280;4706;41.844;26.082;2023-05-01T03:52:13;100850.25;;;15.18;78.14
9335;BME280;4706;41.844;26.082;2023-05-01T03:54:39;100842.09;;;15.22;78.07
9335;BME280;4706;41.844;26.082;2023-05-01T03:57:05;100847.66;;;15.22;78.43
9335;BME280;4706;41.844;26.082;2023-05-01T03:59:30;100841.28;;;15.21;78.00
9335;BME280;4706;41.844;26.082;2023-05-01T04:01:56;100845.53;;;15.27;77.82
9335;BME280;4706;41.844;26.082;2023-05-01T04:04:21;100834.44;;;15.19;77.88
9335;BME280;4706;41.844;26.082;2023-05-01T04:06:47;100849.13;;;15.28;77.52
9335;BME280;4706;41.844;26.082;2023-05-01T04:09:15;100846.84;;;15.30;78.15
9335;BME280;4706;41.844;26.082;2023-05-01T04:11:40;100846.03;;;15.29;78.14
9335;BME280;4706;41.844;26.082;2023-05-01T04:14:06;100845.53;;;15.36;77.59
9335;BME280;4706;41.844;26.082;2023-05-01T04:16:31;100860.69;;;15.30;78.44
9335;BME280;4706;41.844;26.082;2023-05-01T04:18:57;100853.06;;;15.27;78.77
9335;BME280;4706;41.844;26.082;2023-05-01T04:21:22;100854.00;;;15.14;79.47
9335;BME280;4706;41.844;26.082;2023-05-01T04:23:48;100855.63;;;15.15;79.30
9335;BME280;4706;41.844;26.082;2023-05-01T04:26:13;100842.59;;;15.15;79.21
9335;BME280;4706;41.844;26.082;2023-05-01T04:28:39;100858.41;;;15.32;78.88
9335;BME280;4706;41.844;26.082;2023-05-01T04:31:05;100864.28;;;15.22;79.79
9335;BME280;4706;41.844;26.082;2023-05-01T04:33:30;100862.31;;;15.22;79.18
9335;BME280;4706;41.844;26.082;2023-05-01T04:35:56;100863.47;;;15.13;80.18
9335;BME280;4706;41.844;26.082;2023-05-01T04:38:22;100878.59;;;15.15;80.15
9335;BME280;4706;41.844;26.082;2023-05-01T04:40:47;100871.59;;;15.26;80.10
9335;BME280;4706;41.844;26.082;2023-05-01T04:43:13;100877.34;;;15.47;78.13
9335;BME280;4706;41.844;26.082;2023-05-01T04:45:38;100862.97;;;15.37;78.65
9335;BME280;4706;41.844;26.082;2023-05-01T04:48:04;100874.22;;;15.40;79.14
9335;BME280;4706;41.844;26.082;2023-05-01T04:50:30;100871.28;;;15.37;79.84
9335;BME280;4706;41.844;26.082;2023-05-01T04:52:56;100876.66;;;15.42;79.99
9335;BME280;4706;41.844;26.082;2023-05-01T04:55:21;100875.69;;;15.55;79.49
9335;BME280;4706;41.844;26.082;2023-05-01T04:57:47;100878.47;;;15.64;79.44
9335;BME280;4706;41.844;26.082;2023-05-01T05:00:13;100864.13;;;15.62;79.45
9335;BME280;4706;41.844;26.082;2023-05-01T05:02:39;100868.88;;;15.70;78.35
9335;BME280;4706;41.844;26.082;2023-05-01T05:05:04;100875.88;;;15.76;78.63
9335;BME280;4706;41.844;26.082;2023-05-01T05:07:30;100875.03;;;15.75;78.24
9335;BME280;4706;41.844;26.082;2023-05-01T05:09:56;100887.94;;;15.89;78.27
9335;BME280;4706;41.844;26.082;2023-05-01T05:12:21;100890.50;;;16.11;78.00
9335;BME280;4706;41.844;26.082;2023-05-01T05:14:46;100888.34;;;16.17;77.41
9335;BME280;4706;41.844;26.082;2023-05-01T05:17:12;100879.56;;;16.15;77.43
9335;BME280;4706;41.844;26.082;2023-05-01T05:19:38;100894.25;;;16.15;77.06
9335;BME280;4706;41.844;26.082;2023-05-01T05:22:04;100897.50;;;16.17;77.30
9335;BME280;4706;41.844;26.082;2023-05-01T05:24:30;100902.25;;;16.08;77.70
9335;BME280;4706;41.844;26.082;2023-05-01T05:26:55;100918.41;;;16.15;77.49
9335;BME280;4706;41.844;26.082;2023-05-01T05:29:21;100910.88;;;16.15;77.59
9335;BME280;4706;41.844;26.082;2023-05-01T05:31:47;100907.94;;;16.20;77.31
9335;BME280;4706;41.844;26.082;2023-05-01T05:34:12;100913.47;;;16.29;77.33
9335;BME280;4706;41.844;26.082;2023-05-01T05:36:38;100901.69;;;16.32;77.61
9335;BME280;4706;41.844;26.082;2023-05-01T05:39:04;100913.00;;;16.65;76.79
9335;BME280;4706;41.844;26.082;2023-05-01T05:41:29;100906.88;;;16.89;75.75
9335;BME280;4706;41.844;26.082;2023-05-01T05:43:55;100915.59;;;17.30;75.02
9335;BME280;4706;41.844;26.082;2023-05-01T05:46:20;100915.09;;;17.78;72.44
9335;BME280;4706;41.844;26.082;2023-05-01T05:48:46;100913.44;;;17.98;71.47
9335;BME280;4706;41.844;26.082;2023-05-01T05:51:11;100916.03;;;18.15;70.25
9335;BME280;4706;41.844;26.082;2023-05-01T05:53:37;100915.28;;;18.39;69.84
9335;BME280;4706;41.844;26.082;2023-05-01T05:56:02;100915.06;;;18.69;68.82
9335;BME280;4706;41.844;26.082;2023-05-01T05:58:29;100927.53;;;19.08;66.68
9335;BME280;4706;41.844;26.082;2023-05-01T06:00:54;100927.38;;;19.29;66.45
9335;BME280;4706;41.844;26.082;2023-05-01T06:03:20;100928.50;;;19.65;65.40
9335;BME280;4706;41.844;26.082;2023-05-01T06:05:46;100925.16;;;19.87;63.92
9335;BME280;4706;41.844;26.082;2023-05-01T06:08:12;100920.09;;;20.05;62.59
9335;BME280;4706;41.844;26.082;2023-05-01T06:10:41;100926.28;;;19.99;63.05
9335;BME280;4706;41.844;26.082;2023-05-01T06:13:07;100926.50;;;20.22;61.89
9335;BME280;4706;41.844;26.082;2023-05-01T06:15:33;100927.91;;;20.44;61.37
9335;BME280;4706;41.844;26.082;2023-05-01T06:17:59;100929.59;;;20.48;61.14
9335;BME280;4706;41.844;26.082;2023-05-01T06:20:24;100936.41;;;20.79;61.32
9335;BME280;4706;41.844;26.082;2023-05-01T06:22:50;100939.81;;;21.04;59.10
9335;BME280;4706;41.844;26.082;2023-05-01T06:25:16;100936.97;;;21.20;58.31
9335;BME280;4706;41.844;26.082;2023-05-01T06:27:41;100930.13;;;21.33;58.26
9335;BME280;4706;41.844;26.082;2023-05-01T06:30:07;100932.56;;;21.34;58.56
9335;BME280;4706;41.844;26.082;2023-05-01T06:32:34;100932.88;;;21.49;55.94
9335;BME280;4706;41.844;26.082;2023-05-01T06:34:59;100938.78;;;21.63;56.21
9335;BME280;4706;41.844;26.082;2023-05-01T06:37:25;100931.69;;;21.50;56.79
9335;BME280;4706;41.844;26.082;2023-05-01T06:39:50;100942.47;;;21.67;57.74
9335;BME280;4706;41.844;26.082;2023-05-01T06:42:16;100932.47;;;21.86;56.34
9335;BME280;4706;41.844;26.082;2023-05-01T06:44:42;100946.59;;;22.12;53.97
9335;BME280;4706;41.844;26.082;2023-05-01T06:47:08;100923.44;;;22.15;53.35
9335;BME280;4706;41.844;26.082;2023-05-01T06:49:33;100934.19;;;22.55;53.75
9335;BME280;4706;41.844;26.082;2023-05-01T06:51:59;100954.38;;;22.88;52.38
9335;BME280;4706;41.844;26.082;2023-05-01T06:54:24;100948.09;;;23.17;51.00
9335;BME280;4706;41.844;26.082;2023-05-01T06:56:53;100948.47;;;23.46;49.17
9335;BME280;4706;41.844;26.082;2023-05-01T06:59:18;100947.78;;;23.52;48.83
9335;BME280;4706;41.844;26.082;2023-05-01T07:01:44;100946.38;;;23.66;48.94
9335;BME280;4706;41.844;26.082;2023-05-01T07:04:09;100951.31;;;23.76;48.65
9335;BME280;4706;41.844;26.082;2023-05-01T07:06:35;100961.03;;;23.82;48.96
9335;BME280;4706;41.844;26.082;2023-05-01T07:09:02;100952.34;;;23.94;49.38
9335;BME280;4706;41.844;26.082;2023-05-01T07:11:27;100956.28;;;24.20;46.82
9335;BME280;4706;41.844;26.082;2023-05-01T07:13:53;100965.19;;;24.29;47.25
9335;BME280;4706;41.844;26.082;2023-05-01T07:16:19;100960.69;;;24.21;46.20
9335;BME280;4706;41.844;26.082;2023-05-01T07:18:45;100951.94;;;24.26;46.88
9335;BME280;4706;41.844;26.082;2023-05-01T07:21:10;100966.19;;;24.44;46.62
9335;BME280;4706;41.844;26.082;2023-05-01T07:23:36;100944.41;;;24.37;45.84
9335;BME280;4706;41.844;26.082;2023-05-01T07:26:02;100969.19;;;24.62;45.56
9335;BME280;4706;41.844;26.082;2023-05-01T07:28:28;100966.81;;;24.64;45.92
9335;BME280;4706;41.844;26.082;2023-05-01T07:30:54;100957.81;;;24.51;46.00
9335;BME280;4706;41.844;26.082;2023-05-01T07:33:20;100943.50;;;24.26;46.70
9335;BME280;4706;41.844;26.082;2023-05-01T07:35:45;100965.38;;;24.43;45.25
9335;BME280;4706;41.844;26.082;2023-05-01T07:38:11;100973.72;;;24.74;46.20
9335;BME280;4706;41.844;26.082;2023-05-01T07:40:37;100972.28;;;24.94;45.37
9335;BME280;4706;41.844;26.082;2023-05-01T07:43:03;100975.16;;;25.05;45.37
9335;BME280;4706;41.844;26.082;2023-05-01T07:45:29;100970.75;;;25.04;44.49
9335;BME280;4706;41.844;26.082;2023-05-01T07:47:54;100978.22;;;25.30;44.85
9335;BME280;4706;41.844;26.082;2023-05-01T07:50:21;100972.19;;;25.35;42.10
9335;BME280;4706;41.844;26.082;2023-05-01T07:52:47;100975.03;;;25.31;43.04
9335;BME280;4706;41.844;26.082;2023-05-01T07:55:13;100977.09;;;25.45;43.03
9335;BME280;4706;41.844;26.082;2023-05-01T07:57:38;100967.78;;;25.34;42.55
9335;BME280;4706;41.844;26.082;2023-05-01T08:00:04;100979.56;;;25.57;42.88
9335;BME280;4706;41.844;26.082;2023-05-01T08:02:30;100975.22;;;25.67;41.63
9335;BME280;4706;41.844;26.082;2023-05-01T08:04:55;100975.66;;;25.73;41.06
9335;BME280;4706;41.844;26.082;2023-05-01T08:07:21;100975.41;;;26.06;41.40
9335;BME280;4706;41.844;26.082;2023-05-01T08:09:46;100970.63;;;26.21;40.46
9335;BME280;4706;41.844;26.082;2023-05-01T08:12:12;100972.31;;;26.33;39.72
9335;BME280;4706;41.844;26.082;2023-05-01T08:14:37;100980.31;;;26.27;39.20
9335;BME280;4706;41.844;26.082;2023-05-01T08:17:03;100978.00;;;26.54;40.38
9335;BME280;4706;41.844;26.082;2023-05-01T08:19:28;100976.41;;;26.75;39.69
9335;BME280;4706;41.844;26.082;2023-05-01T08:21:54;100968.72;;;26.50;38.71
9335;BME280;4706;41.844;26.082;2023-05-01T08:24:19;100983.53;;;26.15;39.13
9335;BME280;4706;41.844;26.082;2023-05-01T08:26:45;100979.38;;;25.91;40.81
9335;BME280;4706;41.844;26.082;2023-05-01T08:29:11;100983.97;;;26.35;39.90
9335;BME280;4706;41.844;26.082;2023-05-01T08:31:36;100974.66;;;26.24;39.96
9335;BME280;4706;41.844;26.082;2023-05-01T08:34:04;100976.41;;;26.57;39.54
9335;BME280;4706;41.844;26.082;2023-05-01T08:36:29;100969.56;;;26.69;38.92
9335;BME280;4706;41.844;26.082;2023-05-01T08:38:56;100976.81;;;26.87;38.78
9335;BME280;4706;41.844;26.082;2023-05-01T08:41:22;100978.03;;;26.97;38.50
9335;BME280;4706;41.844;26.082;2023-05-01T08:43:48;100974.81;;;27.20;38.04
9335;BME280;4706;41.844;26.082;2023-05-01T08:49:15;100975.50;;;27.81;37.38
9335;BME280;4706;41.844;26.082;2023-05-01T08:51:44;100969.03;;;27.84;36.74
9335;BME280;4706;41.844;26.082;2023-05-01T08:54:13;100971.38;;;28.04;35.91
9335;BME280;4706;41.844;26.082;2023-05-01T08:56:39;100981.06;;;28.06;35.43
9335;BME280;4706;41.844;26.082;2023-05-01T08:59:08;100977.19;;;26.57;37.90
9335;BME280;4706;41.844;26.082;2023-05-01T09:01:34;100976.41;;;26.68;38.16
9335;BME280;4706;41.844;26.082;2023-05-01T09:04:01;100977.25;;;26.90;37.80
9335;BME280;4706;41.844;26.082;2023-05-01T09:06:28;100972.41;;;27.01;37.27
9335;BME280;4706;41.844;26.082;2023-05-01T09:08:54;100971.97;;;27.09;37.57
9335;BME280;4706;41.844;26.082;2023-05-01T09:11:23;100980.03;;;27.32;37.18
9335;BME280;4706;41.844;26.082;2023-05-01T09:13:50;100980.38;;;27.67;36.18
9335;BME280;4706;41.844;26.082;2023-05-01T09:16:17;100970.19;;;27.98;33.92
9335;BME280;4706;41.844;26.082;2023-05-01T09:18:42;100961.63;;;28.16;32.86
9335;BME280;4706;41.844;26.082;2023-05-01T09:21:08;100967.56;;;28.32;33.43
9335;BME280;4706;41.844;26.082;2023-05-01T09:23:34;100964.63;;;27.76;34.54
9335;BME280;4706;41.844;26.082;2023-05-01T09:26:04;100961.03;;;27.51;34.47
9335;BME280;4706;41.844;26.082;2023-05-01T09:28:44;100964.69;;;27.44;34.31
9335;BME280;4706;41.844;26.082;2023-05-01T09:31:26;100966.34;;;26.92;35.94
9335;BME280;4706;41.844;26.082;2023-05-01T09:33:57;100956.25;;;27.19;35.82
9335;BME280;4706;41.844;26.082;2023-05-01T09:36:28;100955.84;;;27.31;36.06
9335;BME280;4706;41.844;26.082;2023-05-01T09:39:01;100963.94;;;27.11;36.70
9335;BME280;4706;41.844;26.082;2023-05-01T09:41:28;100972.00;;;27.24;35.60
9335;BME280;4706;41.844;26.082;2023-05-01T09:43:57;100968.75;;;27.00;35.94
9335;BME280;4706;41.844;26.082;2023-05-01T09:46:24;100969.97;;;26.67;37.33
9335;BME280;4706;41.844;26.082;2023-05-01T09:48:55;100970.22;;;26.12;39.63
9335;BME280;4706;41.844;26.082;2023-05-01T09:51:21;100980.66;;;26.04;40.38
9335;BME280;4706;41.844;26.082;2023-05-01T09:53:47;100972.16;;;25.94;41.69
9335;BME280;4706;41.844;26.082;2023-05-01T09:56:13;100977.03;;;26.04;42.87
9335;BME280;4706;41.844;26.082;2023-05-01T09:58:39;100972.59;;;26.03;42.88
9335;BME280;4706;41.844;26.082;2023-05-01T10:01:04;100979.06;;;26.10;42.88
9335;BME280;4706;41.844;26.082;2023-05-01T10:03:35;100973.88;;;26.23;41.83
9335;BME280;4706;41.844;26.082;2023-05-01T10:06:00;100970.66;;;26.35;39.89
9335;BME280;4706;41.844;26.082;2023-05-01T10:08:47;100968.63;;;26.32;40.33
9335;BME280;4706;41.844;26.082;2023-05-01T10:11:13;100971.88;;;26.34;41.23
9335;BME280;4706;41.844;26.082;2023-05-01T10:13:38;100963.84;;;26.33;40.81
9335;BME280;4706;41.844;26.082;2023-05-01T10:16:04;100971.91;;;26.42;40.16
9335;BME280;4706;41.844;26.082;2023-05-01T10:18:33;100963.88;;;26.47;39.86
9335;BME280;4706;41.844;26.082;2023-05-01T10:20:59;100957.81;;;26.45;39.40
9335;BME280;4706;41.844;26.082;2023-05-01T10:23:25;100963.09;;;26.54;40.06
9335;BME280;4706;41.844;26.082;2023-05-01T10:25:51;100968.34;;;26.87;38.35
9335;BME280;4706;41.844;26.082;2023-05-01T10:28:19;100957.09;;;27.13;38.01
9335;BME280;4706;41.844;26.082;2023-05-01T10:30:45;100955.44;;;27.11;37.68
9335;BME280;4706;41.844;26.082;2023-05-01T10:33:14;100951.41;;;26.66;36.99
9335;BME280;4706;41.844;26.082;2023-05-01T10:35:47;100960.69;;;26.63;36.23
9335;BME280;4706;41.844;26.082;2023-05-01T10:38:21;100946.19;;;26.82;36.31
9335;BME280;4706;41.844;26.082;2023-05-01T10:40:48;100951.81;;;27.25;35.66
9335;BME280;4706;41.844;26.082;2023-05-01T10:43:23;100956.25;;;27.19;35.62
9335;BME280;4706;41.844;26.082;2023-05-01T10:53:37;100951.34;;;26.41;33.58
9335;BME280;4706;41.844;26.082;2023-05-01T10:56:04;100960.88;;;25.94;34.44
9335;BME280;4706;41.844;26.082;2023-05-01T11:01:27;100963.28;;;25.95;34.60
9335;BME280;4706;41.844;26.082;2023-05-01T11:03:53;100958.91;;;26.08;34.58
9335;BME280;4706;41.844;26.082;2023-05-01T11:06:19;100957.88;;;26.63;33.84
9335;BME280;4706;41.844;26.082;2023-05-01T11:08:44;100946.16;;;27.22;33.34
9335;BME280;4706;41.844;26.082;2023-05-01T11:16:39;100951.28;;;27.84;31.02
9335;BME280;4706;41.844;26.082;2023-05-01T11:19:06;100951.69;;;27.72;31.15
9335;BME280;4706;41.844;26.082;2023-05-01T11:21:34;100958.97;;;27.69;30.89
9335;BME280;4706;41.844;26.082;2023-05-01T11:26:28;100953.38;;;27.44;30.71
9335;BME280;4706;41.844;26.082;2023-05-01T11:28:56;100965.53;;;26.98;32.15
9335;BME280;4706;41.844;26.082;2023-05-01T11:31:22;100949.81;;;27.15;31.88
9335;BME280;4706;41.844;26.082;2023-05-01T11:33:48;100955.00;;;27.42;31.16
9335;BME280;4706;41.844;26.082;2023-05-01T11:36:14;100949.00;;;27.11;30.79
9335;BME280;4706;41.844;26.082;2023-05-01T11:38:53;100952.63;;;26.86;31.10
9335;BME280;4706;41.844;26.082;2023-05-01T11:41:22;100954.25;;;27.20;30.79
9335;BME280;4706;41.844;26.082;2023-05-01T11:43:52;100954.63;;;27.40;30.70
9335;BME280;4706;41.844;26.082;2023-05-01T11:46:28;100950.88;;;27.75;30.56
9335;BME280;4706;41.844;26.082;2023-05-01T11:48:55;100950.97;;;27.53;30.42
9335;BME280;4706;41.844;26.082;2023-05-01T11:51:21;100951.44;;;27.23;30.98
9335;BME280;4706;41.844;26.082;2023-05-01T11:54:16;100959.88;;;26.95;33.77
9335;BME280;4706;41.844;26.082;2023-05-01T11:56:42;100954.66;;;26.75;33.72
9335;BME280;4706;41.844;26.082;2023-05-01T11:59:15;100961.50;;;26.67;38.73
9335;BME280;4706;41.844;26.082;2023-05-01T12:01:43;100987.84;;;25.91;49.15
9335;BME280;4706;41.844;26.082;2023-05-01T12:04:09;100988.31;;;24.45;50.04
9335;BME280;4706;41.844;26.082;2023-05-01T12:06:36;100982.00;;;23.09;59.28
9335;BME280;4706;41.844;26.082;2023-05-01T12:09:14;100998.47;;;22.45;59.92
9335;BME280;4706;41.844;26.082;2023-05-01T12:11:41;101000.75;;;21.81;60.42
9335;BME280;4706;41.844;26.082;2023-05-01T12:14:07;101003.41;;;21.07;63.77
9335;BME280;4706;41.844;26.082;2023-05-01T12:16:34;101005.22;;;21.15;59.99
9335;BME280;4706;41.844;26.082;2023-05-01T12:19:00;101016.22;;;21.24;60.76
9335;BME280;4706;41.844;26.082;2023-05-01T12:21:27;101010.72;;;21.12;55.68
9335;BME280;4706;41.844;26.082;2023-05-01T12:23:53;101005.66;;;21.17;55.41
9335;BME280;4706;41.844;26.082;2023-05-01T12:26:20;101015.59;;;20.99;58.68
9335;BME280;4706;41.844;26.082;2023-05-01T12:29:00;101018.44;;;20.55;57.35
9335;BME280;4706;41.844;26.082;2023-05-01T12:31:27;101010.44;;;20.69;53.42
9335;BME280;4706;41.844;26.082;2023-05-01T12:33:54;101011.22;;;20.54;59.84
9335;BME280;4706;41.844;26.082;2023-05-01T12:36:22;101016.00;;;20.53;58.07
9335;BME280;4706;41.844;26.082;2023-05-01T12:39:06;100986.19;;;20.57;61.33
9335;BME280;4706;41.844;26.082;2023-05-01T12:41:41;101024.34;;;21.13;59.31
9335;BME280;4706;41.844;26.082;2023-05-01T12:44:18;101021.09;;;21.11;57.98
9335;BME280;4706;41.844;26.082;2023-05-01T12:46:44;101024.25;;;20.94;58.63
9335;BME280;4706;41.844;26.082;2023-05-01T12:49:18;101022.53;;;20.89;61.35
9335;BME280;4706;41.844;26.082;2023-05-01T12:51:51;101028.66;;;20.95;62.16
9335;BME280;4706;41.844;26.082;2023-05-01T12:54:36;101027.59;;;21.15;62.46
9335;BME280;4706;41.844;26.082;2023-05-01T12:57:06;101015.66;;;21.50;59.70
9335;BME280;4706;41.844;26.082;2023-05-01T12:59:34;101005.22;;;21.66;58.27
9335;BME280;4706;41.844;26.082;2023-05-01T13:02:02;100998.00;;;21.65;59.32
9335;BME280;4706;41.844;26.082;2023-05-01T13:04:28;100984.38;;;21.64;59.09
9335;BME280;4706;41.844;26.082;2023-05-01T13:06:54;100994.94;;;21.70;56.15
9335;BME280;4706;41.844;26.082;2023-05-01T13:09:24;100996.81;;;21.66;57.01
9335;BME280;4706;41.844;26.082;2023-05-01T13:11:58;100998.06;;;21.49;58.61
9335;BME280;4706;41.844;26.082;2023-05-01T13:14:24;100992.78;;;21.64;50.96
9335;BME280;4706;41.844;26.082;2023-05-01T13:16:50;100989.19;;;21.82;49.88
9335;BME280;4706;41.844;26.082;2023-05-01T13:19:28;100984.25;;;21.95;52.28
9335;BME280;4706;41.844;26.082;2023-05-01T13:21:55;100987.06;;;22.15;48.11
9335;BME280;4706;41.844;26.082;2023-05-01T13:24:43;100994.00;;;22.21;48.34
9335;BME280;4706;41.844;26.082;2023-05-01T13:27:11;100987.28;;;22.06;54.45
9335;BME280;4706;41.844;26.082;2023-05-01T13:29:37;100983.19;;;22.19;47.10
9335;BME280;4706;41.844;26.082;2023-05-01T13:32:03;100982.75;;;22.17;47.19
9335;BME280;4706;41.844;26.082;2023-05-01T13:34:33;100988.31;;;21.98;50.45
9335;BME280;4706;41.844;26.082;2023-05-01T13:37:00;100991.47;;;21.77;54.05
9335;BME280;4706;41.844;26.082;2023-05-01T13:39:26;100970.03;;;21.85;53.09
9335;BME280;4706;41.844;26.082;2023-05-01T13:44:18;100981.75;;;22.10;52.14
9335;BME280;4706;41.844;26.082;2023-05-01T13:46:45;100985.53;;;22.17;51.14
9335;BME280;4706;41.844;26.082;2023-05-01T13:49:11;100978.00;;;22.02;51.02